createdAt,value
2018-07-01T00:00:10.768Z,18.80
2018-07-01T00:02:39.290Z,18.80
2018-07-01T00:05:07.854Z,18.70
2018-07-01T00:07:36.145Z,18.60
2018-07-01T00:10:05.422Z,18.60
2018-07-01T00:12:33.653Z,18.50
2018-07-01T00:15:01.869Z,18.60
2018-07-01T00:17:30.100Z,18.50
2018-07-01T00:19:58.446Z,18.40
2018-07-01T00:22:26.636Z,18.40
2018-07-01T00:24:55.721Z,18.30
2018-07-01T00:27:24.166Z,18.20
2018-07-01T00:29:52.458Z,18.10
2018-07-01T00:32:20.701Z,18.10
2018-07-01T00:34:48.938Z,18.10
2018-07-01T00:37:17.073Z,18.10
2018-07-01T00:39:45.226Z,18.00
2018-07-01T00:42:13.386Z,18.00
2018-07-01T00:44:41.573Z,17.90
2018-07-01T00:47:09.716Z,18.00
2018-07-01T00:49:37.857Z,18.00
2018-07-01T00:52:06.015Z,18.00
2018-07-01T00:54:34.149Z,17.90
2018-07-01T00:57:02.273Z,17.90
2018-07-01T00:59:30.438Z,17.80
2018-07-01T01:01:58.554Z,17.80
2018-07-01T01:04:26.782Z,17.80
2018-07-01T01:06:55.155Z,17.70
2018-07-01T01:09:23.431Z,17.70
2018-07-01T01:11:51.686Z,17.60
2018-07-01T01:14:19.954Z,17.60
2018-07-01T01:16:48.233Z,17.60
2018-07-01T01:19:16.438Z,17.50
2018-07-01T01:24:12.834Z,17.50
2018-07-01T01:26:40.989Z,17.50
2018-07-01T01:29:09.342Z,17.40
2018-07-01T01:31:37.613Z,17.40
2018-07-01T01:34:05.942Z,17.40
2018-07-01T01:36:35.794Z,17.40
2018-07-01T01:39:07.129Z,17.30
2018-07-01T01:41:43.519Z,17.30
2018-07-01T01:44:46.034Z,17.30
2018-07-01T01:47:34.341Z,17.20
2018-07-01T01:50:16.740Z,17.20
2018-07-01T01:52:52.042Z,17.10
2018-07-01T01:55:32.858Z,17.00
2018-07-01T01:58:05.227Z,17.00
2018-07-01T02:00:36.823Z,16.90
2018-07-01T02:03:08.509Z,16.90
2018-07-01T02:05:45.434Z,17.00
2018-07-01T02:08:18.299Z,16.90
2018-07-01T02:10:46.555Z,16.90
2018-07-01T02:13:14.814Z,16.80
2018-07-01T02:15:48.586Z,16.70
2018-07-01T02:18:17.067Z,16.70
2018-07-01T02:20:45.479Z,16.60
2018-07-01T02:24:17.434Z,16.60
2018-07-01T02:26:45.626Z,16.50
2018-07-01T02:29:13.846Z,16.40
2018-07-01T02:31:42.035Z,16.30
2018-07-01T02:34:10.244Z,16.30
2018-07-01T02:36:38.599Z,16.10
2018-07-01T02:39:08.099Z,16.10
2018-07-01T02:41:36.316Z,16.20
2018-07-01T02:44:04.562Z,16.30
2018-07-01T02:46:32.838Z,16.20
2018-07-01T02:49:01.205Z,16.20
2018-07-01T02:51:29.406Z,16.30
2018-07-01T02:53:57.674Z,16.20
2018-07-01T02:56:26.582Z,16.20
2018-07-01T02:58:55.201Z,16.20
2018-07-01T03:01:23.390Z,16.10
2018-07-01T03:03:51.550Z,16.10
2018-07-01T03:06:19.701Z,16.10
2018-07-01T03:08:47.895Z,16.00
2018-07-01T03:11:16.086Z,16.00
2018-07-01T03:13:44.366Z,16.00
2018-07-01T03:16:12.635Z,15.90
2018-07-01T03:18:41.028Z,15.80
2018-07-01T03:21:09.431Z,15.80
2018-07-01T03:23:37.751Z,15.60
2018-07-01T03:26:06.077Z,15.60
2018-07-01T03:28:34.412Z,15.60
2018-07-01T03:31:02.737Z,15.60
2018-07-01T03:33:31.318Z,15.60
2018-07-01T03:35:59.609Z,15.60
2018-07-01T03:38:27.869Z,15.50
2018-07-01T03:40:56.218Z,15.60
2018-07-01T03:43:24.574Z,15.50
2018-07-01T03:45:52.775Z,15.50
2018-07-01T03:48:20.969Z,15.60
2018-07-01T03:50:49.181Z,15.60
2018-07-01T03:53:17.321Z,15.60
2018-07-01T03:55:45.471Z,15.60
2018-07-01T03:58:13.593Z,15.60
2018-07-01T04:00:41.725Z,15.60
2018-07-01T04:03:09.898Z,15.60
2018-07-01T04:05:38.049Z,15.50
2018-07-01T04:08:06.182Z,15.60
2018-07-01T04:10:34.391Z,15.60
2018-07-01T04:13:02.553Z,15.60
2018-07-01T04:15:30.694Z,15.60
2018-07-01T04:17:58.825Z,15.60
2018-07-01T04:20:26.957Z,15.60
2018-07-01T04:22:55.086Z,15.60
2018-07-01T04:25:23.233Z,15.60
2018-07-01T04:27:51.351Z,15.70
2018-07-01T04:30:19.478Z,16.30
2018-07-01T04:32:47.589Z,17.00
2018-07-01T04:35:15.727Z,17.50
2018-07-01T04:37:43.852Z,17.90
2018-07-01T04:40:12.009Z,18.10
2018-07-01T04:42:40.151Z,18.30
2018-07-01T04:45:08.285Z,18.30
2018-07-01T04:47:36.478Z,18.40
2018-07-01T04:50:05.058Z,18.60
2018-07-01T04:52:33.186Z,18.50
2018-07-01T04:55:01.360Z,18.60
2018-07-01T04:57:29.526Z,19.00
2018-07-01T04:59:57.623Z,18.80
2018-07-01T05:02:25.794Z,18.40
2018-07-01T05:04:53.856Z,18.30
2018-07-01T05:07:22.100Z,17.90
2018-07-01T05:09:50.227Z,17.50
2018-07-01T05:12:18.327Z,17.30
2018-07-01T05:14:46.418Z,17.40
2018-07-01T05:17:14.609Z,18.10
2018-07-01T05:19:42.658Z,18.60
2018-07-01T05:22:10.802Z,19.10
2018-07-01T05:24:38.923Z,19.40
2018-07-01T05:27:07.060Z,20.00
2018-07-01T05:29:35.197Z,20.10
2018-07-01T05:32:03.337Z,20.20
2018-07-01T05:34:31.485Z,20.10
2018-07-01T05:36:59.625Z,19.90
2018-07-01T05:39:27.760Z,20.20
2018-07-01T05:41:55.897Z,20.80
2018-07-01T05:44:24.070Z,20.90
2018-07-01T05:46:52.197Z,21.80
2018-07-01T05:49:20.355Z,21.80
2018-07-01T05:51:48.486Z,21.60
2018-07-01T05:54:16.853Z,22.00
2018-07-01T05:56:45.008Z,22.10
2018-07-01T05:59:13.145Z,21.50
2018-07-01T06:01:41.301Z,21.80
2018-07-01T06:04:09.465Z,21.60
2018-07-01T06:06:37.610Z,22.40
2018-07-01T06:09:07.801Z,22.20
2018-07-01T06:11:35.937Z,23.20
2018-07-01T06:14:04.898Z,22.90
2018-07-01T06:16:33.154Z,24.00
2018-07-01T06:19:01.256Z,24.50
2018-07-01T06:21:29.412Z,25.40
2018-07-01T06:23:57.585Z,24.40
2018-07-01T06:26:25.772Z,23.40
2018-07-01T06:28:53.932Z,23.20
2018-07-01T06:31:22.245Z,25.00
2018-07-01T06:33:50.429Z,25.30
2018-07-01T06:36:18.577Z,25.00
2018-07-01T06:38:46.965Z,24.60
2018-07-01T06:41:15.442Z,24.40
2018-07-01T06:43:43.589Z,25.60
2018-07-01T06:46:12.049Z,25.90
2018-07-01T06:48:40.163Z,25.60
2018-07-01T06:51:08.311Z,25.30
2018-07-01T06:53:36.441Z,24.40
2018-07-01T06:56:04.645Z,25.60
2018-07-01T06:58:32.748Z,26.00
2018-07-01T07:01:00.886Z,26.00
2018-07-01T07:03:29.409Z,25.50
2018-07-01T07:05:58.040Z,26.50
2018-07-01T07:08:28.232Z,24.50
2018-07-01T07:10:56.417Z,25.20
2018-07-01T07:13:24.594Z,25.40
2018-07-01T07:15:52.755Z,26.00
2018-07-01T07:18:21.038Z,26.00
2018-07-01T07:20:49.401Z,27.10
2018-07-01T07:23:17.555Z,26.30
2018-07-01T07:25:45.967Z,26.90
2018-07-01T07:28:14.232Z,27.00
2018-07-01T07:30:42.674Z,27.10
2018-07-01T07:33:11.070Z,26.30
2018-07-01T07:35:39.243Z,26.60
2018-07-01T07:38:07.373Z,26.00
2018-07-01T07:40:35.515Z,25.60
2018-07-01T07:43:03.650Z,25.70
2018-07-01T07:45:32.905Z,25.40
2018-07-01T07:48:01.096Z,25.90
2018-07-01T07:50:29.229Z,26.20
2018-07-01T07:52:57.373Z,25.80
2018-07-01T07:55:25.509Z,25.40
2018-07-01T07:57:53.646Z,25.20
2018-07-01T08:00:21.850Z,25.50
2018-07-01T08:02:49.994Z,25.40
2018-07-01T08:05:18.133Z,25.80
2018-07-01T08:07:46.829Z,25.90
2018-07-01T08:10:14.958Z,26.10
2018-07-01T08:12:43.131Z,26.20
2018-07-01T08:15:11.243Z,26.70
2018-07-01T08:17:39.367Z,26.10
2018-07-01T08:22:35.461Z,26.30
2018-07-01T08:25:03.640Z,26.40
2018-07-01T08:27:31.853Z,26.20
2018-07-01T08:29:59.993Z,26.20
2018-07-01T08:32:28.125Z,26.00
2018-07-01T08:34:56.286Z,25.80
2018-07-01T08:37:24.445Z,26.10
2018-07-01T08:39:52.561Z,25.10
2018-07-01T08:42:23.011Z,25.50
2018-07-01T08:44:52.358Z,24.70
2018-07-01T08:47:20.713Z,25.50
2018-07-01T08:49:49.481Z,25.60
2018-07-01T08:52:17.672Z,25.30
2018-07-01T08:54:56.647Z,26.00
2018-07-01T08:57:25.062Z,26.90
2018-07-01T08:59:53.530Z,26.40
2018-07-01T09:02:22.063Z,27.40
2018-07-01T09:04:50.250Z,27.60
2018-07-01T09:07:18.908Z,27.70
2018-07-01T09:09:47.459Z,27.60
2018-07-01T09:12:15.615Z,27.50
2018-07-01T09:14:44.601Z,26.40
2018-07-01T09:17:13.150Z,28.20
2018-07-01T09:19:41.271Z,27.20
2018-07-01T09:22:09.622Z,27.60
2018-07-01T09:24:37.798Z,27.90
2018-07-01T09:27:06.072Z,27.90
2018-07-01T09:29:34.221Z,27.70
2018-07-01T09:32:02.769Z,27.70
2018-07-01T09:34:31.011Z,27.70
2018-07-01T09:39:27.085Z,28.60
2018-07-01T09:44:23.885Z,27.90
2018-07-01T09:46:52.074Z,27.80
2018-07-01T09:49:20.245Z,28.70
2018-07-01T09:51:49.055Z,28.20
2018-07-01T09:54:17.293Z,28.50
2018-07-01T09:56:45.858Z,28.50
2018-07-01T09:59:14.118Z,28.30
2018-07-01T10:01:42.263Z,29.30
2018-07-01T10:04:11.266Z,28.10
2018-07-01T10:06:40.224Z,28.40
2018-07-01T10:09:09.444Z,28.80
2018-07-01T10:11:37.961Z,29.20
2018-07-01T10:14:07.661Z,28.40
2018-07-01T10:16:36.802Z,28.90
2018-07-01T10:19:05.343Z,27.50
2018-07-01T10:24:03.664Z,28.50
2018-07-01T10:26:31.806Z,28.40
2018-07-01T10:29:06.097Z,28.30
2018-07-01T10:31:38.774Z,27.80
2018-07-01T10:34:08.101Z,28.60
2018-07-01T10:36:36.305Z,28.50
2018-07-01T10:39:08.693Z,28.30
2018-07-01T10:41:36.849Z,28.70
2018-07-01T10:44:04.978Z,28.80
2018-07-01T10:46:37.497Z,28.80
2018-07-01T10:49:05.722Z,29.60
2018-07-01T10:51:33.965Z,28.30
2018-07-01T10:54:02.149Z,29.10
2018-07-01T10:56:31.186Z,29.10
2018-07-01T10:58:59.899Z,28.60
2018-07-01T11:01:30.066Z,28.60
2018-07-01T11:04:10.950Z,29.30
2018-07-01T11:06:43.705Z,28.20
2018-07-01T11:09:12.828Z,28.40
2018-07-01T11:11:41.043Z,29.60
2018-07-01T11:14:09.453Z,29.50
2018-07-01T11:16:38.331Z,29.60
2018-07-01T11:19:06.513Z,30.30
2018-07-01T11:21:34.766Z,30.00
2018-07-01T11:24:03.035Z,27.30
2018-07-01T11:26:31.324Z,29.30
2018-07-01T11:28:59.460Z,29.50
2018-07-01T11:31:27.642Z,28.80
2018-07-01T11:33:55.931Z,29.00
2018-07-01T11:36:24.122Z,28.70
2018-07-01T11:38:52.259Z,28.20
2018-07-01T11:41:20.447Z,28.30
2018-07-01T11:43:49.483Z,28.50
2018-07-01T11:46:17.649Z,30.10
2018-07-01T11:48:45.989Z,30.20
2018-07-01T11:51:14.161Z,29.40
2018-07-01T11:53:42.322Z,29.80
2018-07-01T11:56:10.670Z,29.00
2018-07-01T11:58:40.348Z,28.60
2018-07-01T12:01:08.947Z,28.70
2018-07-01T12:03:37.184Z,28.80
2018-07-01T12:06:05.390Z,28.60
2018-07-01T12:08:33.531Z,28.20
2018-07-01T12:11:02.673Z,28.40
2018-07-01T12:13:30.807Z,27.20
2018-07-01T12:15:59.825Z,29.20
2018-07-01T12:18:27.949Z,29.30
2018-07-01T12:20:56.465Z,29.20
2018-07-01T12:23:24.684Z,28.90
2018-07-01T12:25:52.726Z,30.60
2018-07-01T12:28:20.860Z,29.60
2018-07-01T12:30:49.006Z,29.40
2018-07-01T12:35:45.071Z,29.60
2018-07-01T12:38:13.198Z,30.00
2018-07-01T12:40:41.366Z,29.70
2018-07-01T12:43:09.820Z,29.80
2018-07-01T12:45:38.120Z,29.50
2018-07-01T12:48:06.609Z,29.80
2018-07-01T12:50:34.684Z,29.00
2018-07-01T12:53:02.848Z,28.40
2018-07-01T12:55:31.021Z,28.50
2018-07-01T12:57:59.174Z,28.50
2018-07-01T13:00:27.346Z,28.80
2018-07-01T13:02:55.505Z,28.80
2018-07-01T13:05:24.209Z,28.50
2018-07-01T13:07:52.580Z,28.50
2018-07-01T13:10:23.164Z,27.90
2018-07-01T13:12:51.305Z,28.30
2018-07-01T13:15:19.466Z,28.40
2018-07-01T13:17:47.714Z,28.70
2018-07-01T13:20:15.879Z,28.50
2018-07-01T13:22:44.002Z,28.80
2018-07-01T13:25:16.130Z,28.20
2018-07-01T13:27:44.515Z,28.40
2018-07-01T13:30:25.292Z,28.40
2018-07-01T13:35:35.893Z,29.00
2018-07-01T13:38:04.230Z,27.90
2018-07-01T13:40:32.403Z,27.70
2018-07-01T13:43:00.602Z,29.00
2018-07-01T13:45:28.843Z,28.50
2018-07-01T13:47:57.124Z,28.30
2018-07-01T13:50:25.261Z,28.80
2018-07-01T13:52:53.605Z,28.60
2018-07-01T13:55:21.836Z,28.40
2018-07-01T13:57:50.398Z,28.60
2018-07-01T14:00:18.549Z,28.50
2018-07-01T14:02:46.714Z,27.40
2018-07-01T14:05:14.895Z,28.00
2018-07-01T14:07:43.051Z,28.30
2018-07-01T14:10:11.213Z,28.30
2018-07-01T14:12:39.412Z,27.60
2018-07-01T14:15:07.585Z,27.80
2018-07-01T14:17:35.778Z,28.00
2018-07-01T14:20:04.415Z,28.10
2018-07-01T14:22:32.704Z,28.50
2018-07-01T14:25:00.872Z,28.20
2018-07-01T14:27:29.061Z,28.30
2018-07-01T14:29:57.294Z,27.20
2018-07-01T14:32:25.930Z,26.60
2018-07-01T14:34:54.082Z,27.30
2018-07-01T14:37:22.247Z,27.40
2018-07-01T14:39:50.422Z,26.90
2018-07-01T14:42:18.866Z,27.00
2018-07-01T14:44:47.159Z,27.20
2018-07-01T14:47:15.587Z,27.60
2018-07-01T14:49:43.921Z,27.30
2018-07-01T14:52:12.254Z,27.30
2018-07-01T14:54:42.787Z,27.30
2018-07-01T14:57:11.023Z,27.10
2018-07-01T14:59:39.200Z,27.10
2018-07-01T15:02:07.556Z,27.00
2018-07-01T15:04:35.732Z,27.10
2018-07-01T15:07:04.319Z,27.20
2018-07-01T15:09:32.738Z,27.00
2018-07-01T15:12:04.250Z,27.00
2018-07-01T15:14:32.616Z,26.80
2018-07-01T15:17:00.762Z,26.50
2018-07-01T15:19:28.951Z,26.70
2018-07-01T15:21:57.117Z,27.20
2018-07-01T15:24:25.264Z,27.10
2018-07-01T15:26:53.419Z,27.00
2018-07-01T15:29:21.569Z,26.80
2018-07-01T15:31:49.693Z,26.50
2018-07-01T15:34:17.816Z,26.20
2018-07-01T15:36:45.913Z,26.60
2018-07-01T15:39:14.089Z,26.80
2018-07-01T15:41:42.242Z,26.80
2018-07-01T15:44:10.374Z,26.80
2018-07-01T15:46:38.609Z,26.60
2018-07-01T15:49:06.771Z,26.50
2018-07-01T15:51:34.915Z,26.40
2018-07-01T15:54:03.066Z,26.60
2018-07-01T15:56:31.204Z,26.50
2018-07-01T15:58:59.409Z,26.50
2018-07-01T16:01:27.558Z,26.70
2018-07-01T16:03:55.685Z,26.30
2018-07-01T16:06:23.845Z,26.40
2018-07-01T16:08:51.991Z,26.50
2018-07-01T16:11:20.104Z,26.40
2018-07-01T16:13:48.257Z,26.40
2018-07-01T16:16:16.372Z,26.50
2018-07-01T16:18:44.536Z,26.40
2018-07-01T16:21:12.675Z,26.40
2018-07-01T16:23:40.809Z,26.10
2018-07-01T16:26:14.347Z,25.90
2018-07-01T16:28:47.982Z,26.00
2018-07-01T16:31:16.189Z,26.10
2018-07-01T16:33:44.346Z,26.20
2018-07-01T16:36:12.501Z,26.10
2018-07-01T16:38:40.625Z,26.00
2018-07-01T16:41:08.811Z,25.90
2018-07-01T16:43:36.943Z,26.00
2018-07-01T16:46:05.314Z,26.00
2018-07-01T16:48:33.480Z,25.90
2018-07-01T16:51:01.662Z,25.90
2018-07-01T16:53:29.812Z,25.80
2018-07-01T16:55:57.955Z,25.80
2018-07-01T16:58:28.020Z,25.80
2018-07-01T17:00:56.202Z,25.80
2018-07-01T17:03:24.355Z,25.70
2018-07-01T17:05:52.497Z,25.60
2018-07-01T17:08:20.629Z,25.60
2018-07-01T17:10:49.097Z,25.70
2018-07-01T17:13:17.240Z,25.60
2018-07-01T17:15:45.348Z,25.60
2018-07-01T17:18:13.494Z,25.60
2018-07-01T17:20:42.862Z,25.60
2018-07-01T17:23:11.584Z,25.60
2018-07-01T17:25:45.396Z,25.40
2018-07-01T17:28:17.467Z,25.30
2018-07-01T17:30:45.765Z,25.30
2018-07-01T17:33:21.922Z,25.30
2018-07-01T17:35:50.535Z,25.20
2018-07-01T17:38:20.196Z,25.30
2018-07-01T17:40:48.426Z,25.20
2018-07-01T17:43:16.651Z,25.10
2018-07-01T17:45:44.937Z,25.20
2018-07-01T17:50:41.246Z,25.00
2018-07-01T17:53:12.598Z,25.00
2018-07-01T17:55:40.813Z,25.00
2018-07-01T17:58:09.011Z,24.90
2018-07-01T18:00:37.391Z,24.90
2018-07-01T18:03:06.351Z,24.80
2018-07-01T18:05:34.722Z,24.80
2018-07-01T18:08:03.501Z,24.70
2018-07-01T18:10:31.706Z,24.70
2018-07-01T18:13:01.321Z,24.60
2018-07-01T18:15:30.159Z,24.60
2018-07-01T18:17:58.748Z,24.50
2018-07-01T18:20:27.315Z,24.50
2018-07-01T18:23:27.410Z,24.50
2018-07-01T18:25:24.579Z,24.40
2018-07-01T18:28:03.601Z,24.30
2018-07-01T18:30:21.559Z,24.30
2018-07-01T18:32:49.697Z,24.20
2018-07-01T18:35:17.820Z,24.20
2018-07-01T18:37:45.977Z,24.10
2018-07-01T18:40:15.029Z,24.00
2018-07-01T18:42:43.178Z,23.90
2018-07-01T18:45:11.306Z,23.80
2018-07-01T18:47:39.432Z,23.70
2018-07-01T18:50:07.587Z,23.60
2018-07-01T18:52:35.715Z,23.50
2018-07-01T18:55:03.865Z,23.40
2018-07-01T18:57:32.238Z,23.30
2018-07-01T19:00:00.402Z,23.30
2018-07-01T19:02:28.522Z,23.10
2018-07-01T19:04:56.674Z,23.00
2018-07-01T19:07:24.832Z,22.90
2018-07-01T19:09:52.970Z,22.90
2018-07-01T19:14:49.265Z,22.80
2018-07-01T19:17:17.440Z,22.60
2018-07-01T19:19:45.593Z,22.60
2018-07-01T19:22:14.882Z,22.50
2018-07-01T19:24:43.040Z,22.40
2018-07-01T19:27:11.157Z,22.30
2018-07-01T19:29:39.289Z,22.20
2018-07-01T19:32:07.631Z,22.10
2018-07-01T19:34:35.783Z,22.00
2018-07-01T19:37:04.277Z,22.00
2018-07-01T19:39:32.540Z,21.80
2018-07-01T19:42:01.100Z,21.70
2018-07-01T19:44:29.701Z,21.60
2018-07-01T19:46:58.168Z,21.60
2018-07-01T19:49:26.379Z,21.60
2018-07-01T19:51:54.453Z,21.50
2018-07-01T19:54:22.618Z,21.40
2018-07-01T19:56:50.885Z,21.40
2018-07-01T19:59:19.037Z,21.30
2018-07-01T20:01:47.225Z,21.30
2018-07-01T20:04:16.130Z,21.30
2018-07-01T20:06:44.306Z,21.10
2018-07-01T20:09:12.449Z,21.10
2018-07-01T20:11:40.601Z,20.90
2018-07-01T20:14:09.063Z,20.90
2018-07-01T20:16:37.478Z,20.80
2018-07-01T20:19:06.698Z,20.70
2018-07-01T20:21:35.458Z,20.70
2018-07-01T20:24:04.077Z,20.60
2018-07-01T20:26:32.762Z,20.60
2018-07-01T20:29:00.913Z,20.50
2018-07-01T20:31:29.095Z,20.50
2018-07-01T20:33:57.286Z,20.50
2018-07-01T20:36:26.349Z,20.40
2018-07-01T20:38:54.448Z,20.40
2018-07-01T20:41:22.570Z,20.30
2018-07-01T20:43:50.690Z,20.30
2018-07-01T20:46:18.790Z,20.30
2018-07-01T20:48:46.920Z,20.30
2018-07-01T20:51:15.042Z,20.20
2018-07-01T20:53:43.182Z,20.10
2018-07-01T20:56:11.353Z,20.00
2018-07-01T20:58:39.476Z,20.00
2018-07-01T21:01:07.549Z,20.00
2018-07-01T21:03:35.773Z,19.90
2018-07-01T21:06:03.945Z,19.70
2018-07-01T21:08:32.091Z,19.70
2018-07-01T21:11:00.225Z,19.60
2018-07-01T21:13:28.559Z,19.70
2018-07-01T21:15:56.822Z,19.60
2018-07-01T21:18:25.105Z,19.50
2018-07-01T21:20:53.329Z,19.10
2018-07-01T21:23:21.462Z,18.30
2018-07-01T21:25:49.612Z,17.80
2018-07-01T21:28:17.761Z,17.50
2018-07-01T21:30:45.891Z,17.30
2018-07-01T21:33:14.114Z,17.30
2018-07-01T21:35:42.511Z,17.00
2018-07-01T21:38:10.661Z,16.90
2018-07-01T21:40:38.855Z,16.80
2018-07-01T21:43:06.933Z,16.70
2018-07-01T21:45:35.105Z,16.50
2018-07-01T21:48:03.306Z,16.50
2018-07-01T21:50:31.468Z,16.70
2018-07-01T21:52:59.624Z,16.60
2018-07-01T21:55:27.754Z,16.60
2018-07-01T21:57:55.915Z,16.30
2018-07-01T22:00:29.983Z,16.10
2018-07-01T22:02:58.110Z,15.90
2018-07-01T22:05:26.570Z,15.90
2018-07-01T22:07:54.830Z,15.90
2018-07-01T22:10:34.469Z,15.80
2018-07-01T22:13:03.123Z,15.90
2018-07-01T22:15:42.608Z,15.90
2018-07-01T22:18:10.701Z,15.60
2018-07-01T22:20:39.141Z,15.50
2018-07-01T22:23:07.356Z,15.40
2018-07-01T22:25:36.036Z,15.40
2018-07-01T22:28:04.610Z,15.60
2018-07-01T22:30:32.829Z,16.20
2018-07-01T22:33:00.957Z,16.30
2018-07-01T22:35:29.089Z,16.10
2018-07-01T22:37:57.234Z,15.70
2018-07-01T22:40:25.349Z,15.70
2018-07-01T22:42:55.293Z,16.10
2018-07-01T22:45:23.518Z,17.00
2018-07-01T22:47:51.661Z,17.10
2018-07-01T22:50:19.785Z,17.20
2018-07-01T22:52:47.929Z,17.30
2018-07-01T22:55:16.077Z,17.00
2018-07-01T22:57:44.189Z,16.30
2018-07-01T23:00:12.342Z,15.80
2018-07-01T23:02:53.443Z,15.60
2018-07-01T23:05:22.026Z,16.00
2018-07-01T23:07:50.601Z,16.40
2018-07-01T23:10:20.209Z,17.00
2018-07-01T23:12:48.503Z,17.10
2018-07-01T23:15:16.650Z,17.20
2018-07-01T23:17:44.810Z,17.20
2018-07-01T23:20:13.105Z,17.20
2018-07-01T23:22:41.689Z,17.00
2018-07-01T23:25:10.323Z,17.00
2018-07-01T23:27:38.403Z,17.00
2018-07-01T23:30:06.518Z,16.90
2018-07-01T23:32:34.622Z,16.90
2018-07-01T23:35:02.742Z,16.80
2018-07-01T23:37:30.877Z,16.70
2018-07-01T23:39:58.973Z,16.50
2018-07-01T23:42:27.109Z,16.00
2018-07-01T23:44:55.233Z,15.70
2018-07-01T23:47:23.350Z,15.20
2018-07-01T23:49:51.502Z,15.00
2018-07-01T23:52:19.725Z,15.00
2018-07-01T23:54:48.247Z,14.80
2018-07-01T23:57:16.397Z,14.90
2018-07-01T23:59:44.508Z,14.90
